sensor_id;sensor_type;location;lat;lon;timestamp;pressure;altitude;pressure_sealevel;temperature;humidity
60417;BME280;46263;44.726;10.396;2023-11-18T00:01:05;100858.41;;;13.90;40.79
60417;BME280;46263;44.726;10.396;2023-11-18T00:03:30;100862.50;;;13.89;40.25
60417;BME280;46263;44.726;10.396;2023-11-18T00:05:56;100864.50;;;13.76;39.92
60417;BME280;46263;44.726;10.396;2023-11-18T00:08:21;100870.75;;;13.69;40.54
60417;BME280;46263;44.726;10.396;2023-11-18T00:10:46;100873.56;;;13.69;40.36
60417;BME280;46263;44.726;10.396;2023-11-18T00:13:12;100869.06;;;13.60;40.97
60417;BME280;46263;44.726;10.396;2023-11-18T00:15:38;100871.63;;;13.58;40.52
60417;BME280;46263;44.726;10.396;2023-11-18T00:18:03;100879.53;;;13.60;41.22
60417;BME280;46263;44.726;10.396;2023-11-18T00:20:29;100871.88;;;13.42;40.55
60417;BME280;46263;44.726;10.396;2023-11-18T00:22:56;100870.28;;;13.47;40.32
60417;BME280;46263;44.726;10.396;2023-11-18T00:25:22;100859.13;;;13.59;40.72
60417;BME280;46263;44.726;10.396;2023-11-18T00:27:47;100877.25;;;13.58;40.80
60417;BME280;46263;44.726;10.396;2023-11-18T00:30:13;100869.75;;;13.48;39.86
60417;BME280;46263;44.726;10.396;2023-11-18T00:32:39;100869.97;;;13.50;40.04
60417;BME280;46263;44.726;10.396;2023-11-18T00:35:05;100877.84;;;13.52;40.66
60417;BME280;46263;44.726;10.396;2023-11-18T00:37:32;100877.78;;;13.57;40.45
60417;BME280;46263;44.726;10.396;2023-11-18T00:39:57;100876.56;;;13.52;40.51
60417;BME280;46263;44.726;10.396;2023-11-18T00:42:23;100884.81;;;13.45;40.68
60417;BME280;46263;44.726;10.396;2023-11-18T00:44:49;100887.13;;;13.47;40.00
60417;BME280;46263;44.726;10.396;2023-11-18T00:47:14;100884.16;;;13.57;40.63
60417;BME280;46263;44.726;10.396;2023-11-18T00:49:39;100890.06;;;13.54;39.92
60417;BME280;46263;44.726;10.396;2023-11-18T00:52:05;100890.47;;;13.63;41.37
60417;BME280;46263;44.726;10.396;2023-11-18T00:54:31;100891.59;;;13.73;39.98
60417;BME280;46263;44.726;10.396;2023-11-18T00:56:56;100903.97;;;13.65;40.19
60417;BME280;46263;44.726;10.396;2023-11-18T00:59:22;100895.63;;;13.59;40.37
60417;BME280;46263;44.726;10.396;2023-11-18T01:01:47;100900.03;;;13.55;40.39
60417;BME280;46263;44.726;10.396;2023-11-18T01:04:14;100907.63;;;13.60;40.61
60417;BME280;46263;44.726;10.396;2023-11-18T01:06:40;100906.31;;;13.61;41.22
60417;BME280;46263;44.726;10.396;2023-11-18T01:09:05;100906.25;;;13.66;41.71
60417;BME280;46263;44.726;10.396;2023-11-18T01:11:32;100910.56;;;13.67;41.88
60417;BME280;46263;44.726;10.396;2023-11-18T01:13:58;100917.97;;;13.70;41.40
60417;BME280;46263;44.726;10.396;2023-11-18T01:16:23;100916.63;;;13.53;40.79
60417;BME280;46263;44.726;10.396;2023-11-18T01:18:49;100915.13;;;13.52;40.92
60417;BME280;46263;44.726;10.396;2023-11-18T01:21:14;100917.09;;;13.39;41.22
60417;BME280;46263;44.726;10.396;2023-11-18T01:23:42;100913.38;;;13.31;41.28
60417;BME280;46263;44.726;10.396;2023-11-18T01:26:08;100913.66;;;13.27;41.09
60417;BME280;46263;44.726;10.396;2023-11-18T01:28:36;100911.84;;;13.30;41.73
60417;BME280;46263;44.726;10.396;2023-11-18T01:31:05;100912.50;;;13.17;41.74
60417;BME280;46263;44.726;10.396;2023-11-18T01:33:35;100921.59;;;13.23;42.03
60417;BME280;46263;44.726;10.396;2023-11-18T01:36:03;100919.56;;;13.24;42.02
60417;BME280;46263;44.726;10.396;2023-11-18T01:38:29;100927.28;;;13.18;42.17
60417;BME280;46263;44.726;10.396;2023-11-18T01:40:56;100921.03;;;13.06;42.38
60417;BME280;46263;44.726;10.396;2023-11-18T01:43:21;100924.25;;;12.92;42.14
60417;BME280;46263;44.726;10.396;2023-11-18T01:45:47;100932.44;;;12.84;42.08
60417;BME280;46263;44.726;10.396;2023-11-18T01:48:13;100925.50;;;12.67;42.30
60417;BME280;46263;44.726;10.396;2023-11-18T01:50:41;100933.66;;;12.65;42.07
60417;BME280;46263;44.726;10.396;2023-11-18T01:53:07;100940.63;;;12.53;42.75
60417;BME280;46263;44.726;10.396;2023-11-18T01:55:33;100939.50;;;12.67;42.17
60417;BME280;46263;44.726;10.396;2023-11-18T01:58:00;100946.63;;;12.68;42.01
60417;BME280;46263;44.726;10.396;2023-11-18T02:00:35;100952.19;;;12.73;42.29
60417;BME280;46263;44.726;10.396;2023-11-18T02:03:00;100950.41;;;12.76;42.64
60417;BME280;46263;44.726;10.396;2023-11-18T02:05:25;100960.50;;;12.90;43.02
60417;BME280;46263;44.726;10.396;2023-11-18T02:07:51;100952.97;;;12.74;43.08
60417;BME280;46263;44.726;10.396;2023-11-18T02:10:17;100954.88;;;12.90;43.79
60417;BME280;46263;44.726;10.396;2023-11-18T02:15:28;100958.13;;;12.65;43.83
60417;BME280;46263;44.726;10.396;2023-11-18T02:17:57;100952.00;;;12.66;43.71
60417;BME280;46263;44.726;10.396;2023-11-18T02:20:23;100956.41;;;12.85;44.27
60417;BME280;46263;44.726;10.396;2023-11-18T02:22:50;100953.31;;;12.94;43.14
60417;BME280;46263;44.726;10.396;2023-11-18T02:25:17;100951.56;;;12.86;44.24
60417;BME280;46263;44.726;10.396;2023-11-18T02:27:44;100948.25;;;12.87;44.31
60417;BME280;46263;44.726;10.396;2023-11-18T02:30:11;100954.25;;;12.73;43.84
60417;BME280;46263;44.726;10.396;2023-11-18T02:33:00;100955.19;;;12.81;45.50
60417;BME280;46263;44.726;10.396;2023-11-18T02:35:35;100963.56;;;12.86;44.17
60417;BME280;46263;44.726;10.396;2023-11-18T02:38:04;100967.38;;;12.89;42.99
60417;BME280;46263;44.726;10.396;2023-11-18T02:40:35;100968.16;;;12.84;44.43
60417;BME280;46263;44.726;10.396;2023-11-18T02:43:02;100973.50;;;12.87;44.13
60417;BME280;46263;44.726;10.396;2023-11-18T02:45:31;100970.72;;;12.82;43.65
60417;BME280;46263;44.726;10.396;2023-11-18T02:47:57;100974.34;;;12.77;43.26
60417;BME280;46263;44.726;10.396;2023-11-18T02:50:26;100979.16;;;12.82;44.06
60417;BME280;46263;44.726;10.396;2023-11-18T02:52:53;100977.34;;;12.84;44.83
60417;BME280;46263;44.726;10.396;2023-11-18T02:55:19;100982.75;;;12.77;43.87
60417;BME280;46263;44.726;10.396;2023-11-18T02:57:46;100985.16;;;12.62;44.30
60417;BME280;46263;44.726;10.396;2023-11-18T03:00:12;100983.06;;;12.68;44.45
60417;BME280;46263;44.726;10.396;2023-11-18T03:02:44;100988.97;;;12.65;44.70
60417;BME280;46263;44.726;10.396;2023-11-18T03:05:12;100981.50;;;12.72;43.82
60417;BME280;46263;44.726;10.396;2023-11-18T03:07:38;100995.09;;;12.63;44.25
60417;BME280;46263;44.726;10.396;2023-11-18T03:10:04;100991.09;;;12.53;45.24
60417;BME280;46263;44.726;10.396;2023-11-18T03:12:36;100986.84;;;12.47;44.17
60417;BME280;46263;44.726;10.396;2023-11-18T03:15:01;100994.22;;;12.44;44.93
60417;BME280;46263;44.726;10.396;2023-11-18T03:17:28;101007.53;;;12.38;45.11
60417;BME280;46263;44.726;10.396;2023-11-18T03:19:53;101015.69;;;12.36;44.86
60417;BME280;46263;44.726;10.396;2023-11-18T03:22:19;101019.84;;;12.24;44.61
60417;BME280;46263;44.726;10.396;2023-11-18T03:24:44;101015.78;;;12.20;45.04
60417;BME280;46263;44.726;10.396;2023-11-18T03:27:09;101012.97;;;12.25;45.04
60417;BME280;46263;44.726;10.396;2023-11-18T03:29:35;101016.75;;;12.33;44.96
60417;BME280;46263;44.726;10.396;2023-11-18T03:32:01;101014.91;;;12.41;44.47
60417;BME280;46263;44.726;10.396;2023-11-18T03:34:26;101014.59;;;12.50;44.98
60417;BME280;46263;44.726;10.396;2023-11-18T03:36:52;101008.47;;;12.46;44.09
60417;BME280;46263;44.726;10.396;2023-11-18T03:39:18;101012.00;;;12.52;45.66
60417;BME280;46263;44.726;10.396;2023-11-18T03:41:43;101012.81;;;12.47;45.69
60417;BME280;46263;44.726;10.396;2023-11-18T03:44:12;101019.38;;;12.55;46.28
60417;BME280;46263;44.726;10.396;2023-11-18T03:46:38;101023.72;;;12.56;46.78
60417;BME280;46263;44.726;10.396;2023-11-18T03:49:03;101025.56;;;12.48;47.04
60417;BME280;46263;44.726;10.396;2023-11-18T03:51:29;101030.66;;;12.44;47.50
60417;BME280;46263;44.726;10.396;2023-11-18T03:53:54;101037.81;;;12.40;47.06
60417;BME280;46263;44.726;10.396;2023-11-18T03:56:20;101037.56;;;12.43;47.08
60417;BME280;46263;44.726;10.396;2023-11-18T03:58:46;101036.34;;;12.33;45.75
60417;BME280;46263;44.726;10.396;2023-11-18T04:01:24;101028.50;;;12.26;46.15
60417;BME280;46263;44.726;10.396;2023-11-18T04:03:53;101024.44;;;12.27;46.49
60417;BME280;46263;44.726;10.396;2023-11-18T04:06:23;101026.06;;;12.01;46.20
60417;BME280;46263;44.726;10.396;2023-11-18T04:08:49;101023.56;;;11.97;45.92
60417;BME280;46263;44.726;10.396;2023-11-18T04:11:15;101023.41;;;11.74;46.29
60417;BME280;46263;44.726;10.396;2023-11-18T04:13:41;101023.69;;;11.65;46.15
60417;BME280;46263;44.726;10.396;2023-11-18T04:16:15;101021.69;;;11.60;46.40
60417;BME280;46263;44.726;10.396;2023-11-18T04:18:45;101033.41;;;11.53;46.38
60417;BME280;46263;44.726;10.396;2023-11-18T04:21:11;101028.56;;;11.53;46.72
60417;BME280;46263;44.726;10.396;2023-11-18T04:23:39;101022.72;;;11.46;46.92
60417;BME280;46263;44.726;10.396;2023-11-18T04:26:05;101025.78;;;11.37;47.18
60417;BME280;46263;44.726;10.396;2023-11-18T04:28:32;101034.91;;;11.43;47.04
60417;BME280;46263;44.726;10.396;2023-11-18T04:30:58;101027.28;;;11.43;46.70
60417;BME280;46263;44.726;10.396;2023-11-18T04:33:24;101042.31;;;11.40;46.81
60417;BME280;46263;44.726;10.396;2023-11-18T04:35:51;101033.34;;;11.64;47.11
60417;BME280;46263;44.726;10.396;2023-11-18T04:38:17;101033.88;;;11.68;47.70
60417;BME280;46263;44.726;10.396;2023-11-18T04:40:43;101035.94;;;11.62;48.50
60417;BME280;46263;44.726;10.396;2023-11-18T04:43:10;101052.94;;;11.75;48.28
60417;BME280;46263;44.726;10.396;2023-11-18T04:45:36;101050.69;;;11.62;46.20
60417;BME280;46263;44.726;10.396;2023-11-18T04:48:03;101055.75;;;11.64;45.92
60417;BME280;46263;44.726;10.396;2023-11-18T04:50:29;101051.72;;;11.43;46.14
60417;BME280;46263;44.726;10.396;2023-11-18T04:52:56;101058.34;;;11.29;46.46
60417;BME280;46263;44.726;10.396;2023-11-18T04:55:21;101074.13;;;11.54;46.48
60417;BME280;46263;44.726;10.396;2023-11-18T04:57:47;101060.34;;;11.56;46.64
60417;BME280;46263;44.726;10.396;2023-11-18T05:00:13;101049.66;;;11.60;46.68
60417;BME280;46263;44.726;10.396;2023-11-18T05:02:42;101051.69;;;11.65;46.52
60417;BME280;46263;44.726;10.396;2023-11-18T05:05:08;101051.44;;;11.46;46.76
60417;BME280;46263;44.726;10.396;2023-11-18T05:07:34;101046.38;;;11.28;47.51
60417;BME280;46263;44.726;10.396;2023-11-18T05:10:01;101041.31;;;11.21;47.91
60417;BME280;46263;44.726;10.396;2023-11-18T05:12:26;101041.84;;;11.25;47.70
60417;BME280;46263;44.726;10.396;2023-11-18T05:14:55;101038.50;;;11.38;47.28
60417;BME280;46263;44.726;10.396;2023-11-18T05:17:22;101044.31;;;11.40;47.19
60417;BME280;46263;44.726;10.396;2023-11-18T05:19:48;101043.56;;;11.45;47.17
60417;BME280;46263;44.726;10.396;2023-11-18T05:22:13;101047.66;;;11.55;46.42
60417;BME280;46263;44.726;10.396;2023-11-18T05:24:39;101041.75;;;11.64;46.33
60417;BME280;46263;44.726;10.396;2023-11-18T05:27:05;101035.66;;;11.65;45.79
60417;BME280;46263;44.726;10.396;2023-11-18T05:29:31;101035.66;;;11.71;45.87
60417;BME280;46263;44.726;10.396;2023-11-18T05:31:57;101040.00;;;11.66;45.26
60417;BME280;46263;44.726;10.396;2023-11-18T05:34:24;101036.94;;;11.59;45.55
60417;BME280;46263;44.726;10.396;2023-11-18T05:36:50;101035.88;;;11.73;46.26
60417;BME280;46263;44.726;10.396;2023-11-18T05:39:20;101040.50;;;11.59;45.72
60417;BME280;46263;44.726;10.396;2023-11-18T05:41:46;101041.00;;;11.69;46.11
60417;BME280;46263;44.726;10.396;2023-11-18T05:44:15;101046.38;;;11.45;47.80
60417;BME280;46263;44.726;10.396;2023-11-18T05:46:45;101039.00;;;11.42;49.71
60417;BME280;46263;44.726;10.396;2023-11-18T05:49:17;101047.69;;;11.22;47.50
60417;BME280;46263;44.726;10.396;2023-11-18T05:51:43;101053.50;;;11.29;47.38
60417;BME280;46263;44.726;10.396;2023-11-18T05:54:09;101051.25;;;11.22;47.21
60417;BME280;46263;44.726;10.396;2023-11-18T05:56:36;101046.66;;;11.36;47.10
60417;BME280;46263;44.726;10.396;2023-11-18T05:59:01;101050.19;;;11.47;46.37
60417;BME280;46263;44.726;10.396;2023-11-18T06:01:30;101051.47;;;11.52;45.86
60417;BME280;46263;44.726;10.396;2023-11-18T06:03:55;101061.09;;;11.51;46.37
60417;BME280;46263;44.726;10.396;2023-11-18T06:06:22;101064.97;;;11.42;46.37
60417;BME280;46263;44.726;10.396;2023-11-18T06:08:48;101065.47;;;11.30;46.46
60417;BME280;46263;44.726;10.396;2023-11-18T06:11:15;101069.78;;;11.31;46.79
60417;BME280;46263;44.726;10.396;2023-11-18T06:13:43;101067.25;;;11.27;46.51
60417;BME280;46263;44.726;10.396;2023-11-18T06:16:12;101077.94;;;11.34;46.58
60417;BME280;46263;44.726;10.396;2023-11-18T06:18:43;101076.41;;;11.28;46.67
60417;BME280;46263;44.726;10.396;2023-11-18T06:21:29;101080.75;;;11.18;46.98
60417;BME280;46263;44.726;10.396;2023-11-18T06:23:59;101099.56;;;11.34;47.72
60417;BME280;46263;44.726;10.396;2023-11-18T06:26:25;101096.00;;;11.33;48.07
60417;BME280;46263;44.726;10.396;2023-11-18T06:28:55;101103.63;;;11.33;47.34
60417;BME280;46263;44.726;10.396;2023-11-18T06:31:21;101097.00;;;11.36;47.27
60417;BME280;46263;44.726;10.396;2023-11-18T06:33:49;101104.66;;;11.30;47.71
60417;BME280;46263;44.726;10.396;2023-11-18T06:38:42;101093.19;;;11.22;47.80
60417;BME280;46263;44.726;10.396;2023-11-18T06:41:09;101103.88;;;11.29;47.99
60417;BME280;46263;44.726;10.396;2023-11-18T06:43:38;101110.50;;;11.26;50.48
60417;BME280;46263;44.726;10.396;2023-11-18T06:46:29;101116.34;;;11.34;49.83
60417;BME280;46263;44.726;10.396;2023-11-18T06:48:57;101120.41;;;11.44;50.04
60417;BME280;46263;44.726;10.396;2023-11-18T06:51:25;101128.03;;;11.43;51.05
60417;BME280;46263;44.726;10.396;2023-11-18T06:53:55;101132.88;;;11.48;50.47
60417;BME280;46263;44.726;10.396;2023-11-18T06:56:21;101127.53;;;11.56;50.91
60417;BME280;46263;44.726;10.396;2023-11-18T06:58:46;101133.13;;;11.56;49.82
60417;BME280;46263;44.726;10.396;2023-11-18T07:01:15;101135.41;;;11.35;50.81
60417;BME280;46263;44.726;10.396;2023-11-18T07:03:42;101139.50;;;11.29;50.02
60417;BME280;46263;44.726;10.396;2023-11-18T07:06:08;101141.53;;;11.28;49.98
60417;BME280;46263;44.726;10.396;2023-11-18T07:08:35;101145.59;;;11.44;50.95
60417;BME280;46263;44.726;10.396;2023-11-18T07:11:01;101142.81;;;11.60;50.66
60417;BME280;46263;44.726;10.396;2023-11-18T07:13:27;101139.75;;;11.64;50.92
60417;BME280;46263;44.726;10.396;2023-11-18T07:15:53;101152.47;;;11.70;50.70
60417;BME280;46263;44.726;10.396;2023-11-18T07:18:22;101151.19;;;11.60;49.20
60417;BME280;46263;44.726;10.396;2023-11-18T07:20:48;101155.78;;;11.63;49.60
60417;BME280;46263;44.726;10.396;2023-11-18T07:23:14;101164.94;;;11.80;50.27
60417;BME280;46263;44.726;10.396;2023-11-18T07:25:43;101176.13;;;11.91;50.26
60417;BME280;46263;44.726;10.396;2023-11-18T07:28:09;101179.94;;;11.99;50.22
60417;BME280;46263;44.726;10.396;2023-11-18T07:30:34;101181.94;;;12.09;49.57
60417;BME280;46263;44.726;10.396;2023-11-18T07:33:02;101189.81;;;12.11;48.68
60417;BME280;46263;44.726;10.396;2023-11-18T07:35:28;101188.03;;;12.13;48.35
60417;BME280;46263;44.726;10.396;2023-11-18T07:37:55;101201.22;;;12.29;48.22
60417;BME280;46263;44.726;10.396;2023-11-18T07:40:22;101190.72;;;12.41;46.80
60417;BME280;46263;44.726;10.396;2023-11-18T07:42:56;101186.88;;;12.55;46.19
60417;BME280;46263;44.726;10.396;2023-11-18T07:45:22;101188.34;;;12.61;45.67
60417;BME280;46263;44.726;10.396;2023-11-18T07:47:52;101186.53;;;12.69;45.99
60417;BME280;46263;44.726;10.396;2023-11-18T07:50:18;101180.06;;;12.85;45.05
60417;BME280;46263;44.726;10.396;2023-11-18T07:52:46;101192.53;;;12.95;44.81
60417;BME280;46263;44.726;10.396;2023-11-18T07:55:12;101191.78;;;12.94;43.75
60417;BME280;46263;44.726;10.396;2023-11-18T07:57:39;101199.84;;;13.09;44.09
60417;BME280;46263;44.726;10.396;2023-11-18T08:00:04;101203.13;;;13.18;44.28
60417;BME280;46263;44.726;10.396;2023-11-18T08:02:36;101197.69;;;13.26;42.59
60417;BME280;46263;44.726;10.396;2023-11-18T08:05:03;101206.78;;;13.37;43.00
60417;BME280;46263;44.726;10.396;2023-11-18T08:07:28;101209.81;;;13.45;42.49
60417;BME280;46263;44.726;10.396;2023-11-18T08:09:54;101206.47;;;13.46;41.49
60417;BME280;46263;44.726;10.396;2023-11-18T08:12:19;101214.59;;;13.50;41.37
60417;BME280;46263;44.726;10.396;2023-11-18T08:14:45;101200.09;;;13.46;42.83
60417;BME280;46263;44.726;10.396;2023-11-18T08:17:12;101206.97;;;13.50;41.64
60417;BME280;46263;44.726;10.396;2023-11-18T08:19:38;101207.63;;;13.61;41.95
60417;BME280;46263;44.726;10.396;2023-11-18T08:22:04;101220.41;;;13.28;42.50
60417;BME280;46263;44.726;10.396;2023-11-18T08:24:31;101219.53;;;13.03;43.94
60417;BME280;46263;44.726;10.396;2023-11-18T08:26:59;101217.41;;;13.20;44.99
60417;BME280;46263;44.726;10.396;2023-11-18T08:29:24;101228.63;;;13.20;45.12
60417;BME280;46263;44.726;10.396;2023-11-18T08:31:53;101228.44;;;13.07;45.29
60417;BME280;46263;44.726;10.396;2023-11-18T08:34:18;101235.00;;;13.21;45.89
60417;BME280;46263;44.726;10.396;2023-11-18T08:36:44;101231.28;;;13.42;45.99
60417;BME280;46263;44.726;10.396;2023-11-18T08:39:09;101233.00;;;13.51;45.85
60417;BME280;46263;44.726;10.396;2023-11-18T08:41:36;101239.44;;;13.75;45.89
60417;BME280;46263;44.726;10.396;2023-11-18T08:44:01;101234.78;;;13.83;45.85
60417;BME280;46263;44.726;10.396;2023-11-18T08:46:27;101239.72;;;14.01;45.57
60417;BME280;46263;44.726;10.396;2023-11-18T08:48:52;101231.50;;;14.03;46.82
60417;BME280;46263;44.726;10.396;2023-11-18T08:51:20;101242.16;;;14.10;46.66
60417;BME280;46263;44.726;10.396;2023-11-18T08:53:46;101238.75;;;14.22;47.20
60417;BME280;46263;44.726;10.396;2023-11-18T08:56:13;101248.59;;;14.34;43.98
60417;BME280;46263;44.726;10.396;2023-11-18T08:58:44;101245.31;;;14.30;44.33
60417;BME280;46263;44.726;10.396;2023-11-18T09:01:14;101250.09;;;14.40;44.06
60417;BME280;46263;44.726;10.396;2023-11-18T09:03:41;101250.25;;;14.24;42.95
60417;BME280;46263;44.726;10.396;2023-11-18T09:06:14;101242.97;;;14.58;41.81
60417;BME280;46263;44.726;10.396;2023-11-18T09:08:44;101249.91;;;14.33;42.03
60417;BME280;46263;44.726;10.396;2023-11-18T09:11:12;101236.00;;;14.64;42.08
60417;BME280;46263;44.726;10.396;2023-11-18T09:13:43;101239.75;;;14.91;40.39
60417;BME280;46263;44.726;10.396;2023-11-18T09:16:10;101238.88;;;14.59;40.31
60417;BME280;46263;44.726;10.396;2023-11-18T09:18:37;101235.25;;;14.40;40.16
60417;BME280;46263;44.726;10.396;2023-11-18T09:21:04;101241.56;;;14.46;40.30
60417;BME280;46263;44.726;10.396;2023-11-18T09:23:32;101237.78;;;14.62;41.07
60417;BME280;46263;44.726;10.396;2023-11-18T09:26:00;101231.19;;;14.35;40.72
60417;BME280;46263;44.726;10.396;2023-11-18T09:28:26;101230.50;;;14.72;40.98
60417;BME280;46263;44.726;10.396;2023-11-18T09:30:56;101228.91;;;14.95;40.96
60417;BME280;46263;44.726;10.396;2023-11-18T09:33:26;101220.34;;;15.06;39.20
60417;BME280;46263;44.726;10.396;2023-11-18T09:36:02;101218.88;;;14.81;39.93
60417;BME280;46263;44.726;10.396;2023-11-18T09:38:33;101216.00;;;15.05;41.01
60417;BME280;46263;44.726;10.396;2023-11-18T09:41:02;101222.66;;;15.25;40.11
60417;BME280;46263;44.726;10.396;2023-11-18T09:43:34;101225.03;;;15.16;39.68
60417;BME280;46263;44.726;10.396;2023-11-18T09:46:23;101233.69;;;15.23;38.36
60417;BME280;46263;44.726;10.396;2023-11-18T09:48:51;101238.78;;;15.25;38.12
60417;BME280;46263;44.726;10.396;2023-11-18T09:51:26;101247.03;;;15.54;37.61
60417;BME280;46263;44.726;10.396;2023-11-18T09:53:59;101245.47;;;15.72;38.54
60417;BME280;46263;44.726;10.396;2023-11-18T10:01:38;101258.78;;;15.58;36.89
60417;BME280;46263;44.726;10.396;2023-11-18T10:04:07;101256.28;;;15.36;36.72
60417;BME280;46263;44.726;10.396;2023-11-18T10:06:35;101257.03;;;15.37;37.28
60417;BME280;46263;44.726;10.396;2023-11-18T10:09:02;101253.09;;;15.27;36.60
60417;BME280;46263;44.726;10.396;2023-11-18T10:11:44;101251.41;;;15.37;37.23
60417;BME280;46263;44.726;10.396;2023-11-18T10:14:13;101242.09;;;15.42;36.74
60417;BME280;46263;44.726;10.396;2023-11-18T10:16:41;101248.13;;;15.33;36.96
60417;BME280;46263;44.726;10.396;2023-11-18T10:19:07;101244.59;;;15.45;35.69
60417;BME280;46263;44.726;10.396;2023-11-18T10:21:37;101239.47;;;15.62;36.29
60417;BME280;46263;44.726;10.396;2023-11-18T10:24:09;101227.66;;;15.95;35.95
60417;BME280;46263;44.726;10.396;2023-11-18T10:26:46;101227.81;;;15.71;35.68
60417;BME280;46263;44.726;10.396;2023-11-18T10:29:11;101215.81;;;15.96;35.73
60417;BME280;46263;44.726;10.396;2023-11-18T10:31:38;101208.25;;;16.04;35.63
60417;BME280;46263;44.726;10.396;2023-11-18T10:34:14;101204.25;;;16.13;35.88
60417;BME280;46263;44.726;10.396;2023-11-18T10:36:59;101200.81;;;16.33;35.99
60417;BME280;46263;44.726;10.396;2023-11-18T10:39:28;101206.56;;;16.40;35.92
60417;BME280;46263;44.726;10.396;2023-11-18T10:41:59;101211.41;;;16.27;36.19
60417;BME280;46263;44.726;10.396;2023-11-18T10:44:25;101201.13;;;16.29;36.00
60417;BME280;46263;44.726;10.396;2023-11-18T10:46:52;101202.53;;;16.23;35.80
60417;BME280;46263;44.726;10.396;2023-11-18T10:49:24;101199.84;;;16.43;35.90
60417;BME280;46263;44.726;10.396;2023-11-18T10:51:52;101196.00;;;16.67;35.68
60417;BME280;46263;44.726;10.396;2023-11-18T10:54:18;101198.50;;;16.70;35.00
60417;BME280;46263;44.726;10.396;2023-11-18T10:56:48;101201.13;;;16.55;34.70
60417;BME280;46263;44.726;10.396;2023-11-18T10:59:14;101196.25;;;16.56;34.28
60417;BME280;46263;44.726;10.396;2023-11-18T11:01:44;101200.16;;;16.40;34.36
60417;BME280;46263;44.726;10.396;2023-11-18T11:04:13;101187.00;;;16.55;34.77
60417;BME280;46263;44.726;10.396;2023-11-18T11:06:45;101195.34;;;16.74;35.18
60417;BME280;46263;44.726;10.396;2023-11-18T11:09:25;101190.78;;;16.83;34.31
60417;BME280;46263;44.726;10.396;2023-11-18T11:12:06;101195.16;;;16.72;34.33
60417;BME280;46263;44.726;10.396;2023-11-18T11:14:37;101203.06;;;16.73;33.79
60417;BME280;46263;44.726;10.396;2023-11-18T11:17:13;101207.19;;;16.72;34.33
60417;BME280;46263;44.726;10.396;2023-11-18T11:19:55;101206.66;;;16.61;34.82
60417;BME280;46263;44.726;10.396;2023-11-18T11:26:02;101202.28;;;16.85;34.63
60417;BME280;46263;44.726;10.396;2023-11-18T11:28:42;101203.38;;;16.82;34.50
60417;BME280;46263;44.726;10.396;2023-11-18T11:34:04;101195.78;;;16.77;34.49
60417;BME280;46263;44.726;10.396;2023-11-18T11:36:42;101200.22;;;16.86;34.33
60417;BME280;46263;44.726;10.396;2023-11-18T11:39:12;101198.06;;;17.12;33.75
60417;BME280;46263;44.726;10.396;2023-11-18T11:41:45;101195.94;;;17.39;34.19
60417;BME280;46263;44.726;10.396;2023-11-18T11:44:16;101181.38;;;17.35;32.03
60417;BME280;46263;44.726;10.396;2023-11-18T11:46:45;101191.41;;;17.23;32.48
60417;BME280;46263;44.726;10.396;2023-11-18T11:49:22;101188.38;;;17.21;33.09
60417;BME280;46263;44.726;10.396;2023-11-18T11:52:07;101193.50;;;16.76;32.91
60417;BME280;46263;44.726;10.396;2023-11-18T11:55:09;101191.94;;;16.88;33.25
60417;BME280;46263;44.726;10.396;2023-11-18T11:57:32;101194.94;;;17.03;33.33
60417;BME280;46263;44.726;10.396;2023-11-18T12:00:02;101192.00;;;17.08;33.33
60417;BME280;46263;44.726;10.396;2023-11-18T12:02:47;101180.50;;;17.40;33.68
60417;BME280;46263;44.726;10.396;2023-11-18T12:05:16;101185.16;;;17.37;33.02
60417;BME280;46263;44.726;10.396;2023-11-18T12:07:44;101181.00;;;17.18;33.14
60417;BME280;46263;44.726;10.396;2023-11-18T12:10:11;101174.63;;;17.04;33.33
60417;BME280;46263;44.726;10.396;2023-11-18T12:12:45;101175.72;;;17.35;33.79
60417;BME280;46263;44.726;10.396;2023-11-18T12:15:11;101167.38;;;17.29;33.83
60417;BME280;46263;44.726;10.396;2023-11-18T12:20:45;101171.78;;;17.17;33.45
60417;BME280;46263;44.726;10.396;2023-11-18T12:23:19;101174.44;;;17.56;32.73
60417;BME280;46263;44.726;10.396;2023-11-18T12:25:49;101171.88;;;17.65;32.57
60417;BME280;46263;44.726;10.396;2023-11-18T12:28:41;101172.31;;;17.49;32.71
60417;BME280;46263;44.726;10.396;2023-11-18T12:31:11;101166.50;;;17.55;33.38
60417;BME280;46263;44.726;10.396;2023-11-18T12:34:00;101160.72;;;17.80;33.44
60417;BME280;46263;44.726;10.396;2023-11-18T12:39:23;101146.31;;;17.99;33.49
60417;BME280;46263;44.726;10.396;2023-11-18T12:42:04;101143.78;;;17.88;33.02
60417;BME280;46263;44.726;10.396;2023-11-18T12:47:24;101132.25;;;17.58;33.23
60417;BME280;46263;44.726;10.396;2023-11-18T12:49:53;101133.75;;;17.59;32.79
60417;BME280;46263;44.726;10.396;2023-11-18T12:52:22;101129.31;;;17.71;33.11
60417;BME280;46263;44.726;10.396;2023-11-18T12:54:49;101134.09;;;17.76;33.19
60417;BME280;46263;44.726;10.396;2023-11-18T12:57:19;101124.53;;;17.86;33.59
60417;BME280;46263;44.726;10.396;2023-11-18T12:59:48;101127.00;;;18.18;34.08
60417;BME280;46263;44.726;10.396;2023-11-18T13:02:15;101126.25;;;18.17;32.67
60417;BME280;46263;44.726;10.396;2023-11-18T13:04:47;101122.00;;;18.03;32.19
60417;BME280;46263;44.726;10.396;2023-11-18T13:07:15;101115.22;;;18.06;32.89
60417;BME280;46263;44.726;10.396;2023-11-18T13:09:40;101119.72;;;18.02;33.37
60417;BME280;46263;44.726;10.396;2023-11-18T13:12:08;101108.03;;;17.98;33.77